Time;durP1;ratioP1;P1;durP2;ratioP2;P2;SDS_P1;SDS_P2;PMS_P1;PMS_P2;Temp;Humidity;BMP_temperature;BMP_pressure;BME280_temperature;BME280_humidity;BME280_pressure;Samples;Min_cycle;Max_cycle;Signal;HPM_P1;HPM_P2
2023/07/30 00:00:32;;;;;;;1.40;0.40;;;;;;;18.02;100.00;100121.69;5022122;28;20518;-50
2023/07/30 00:02:57;;;;;;;2.92;0.28;;;;;;;17.91;100.00;100135.22;5023420;28;20037;-52
2023/07/30 00:05:23;;;;;;;3.38;0.20;;;;;;;17.95;100.00;100134.47;5020769;28;20060;-51
2023/07/30 00:07:48;;;;;;;2.90;0.20;;;;;;;17.90;100.00;100129.03;5022736;28;20474;-57
2023/07/30 00:10:13;;;;;;;1.05;0.22;;;;;;;17.93;100.00;100128.53;5021762;28;20029;-53
2023/07/30 00:12:40;;;;;;;4.68;0.28;;;;;;;17.92;100.00;100121.56;5016590;28;20027;-50
2023/07/30 00:15:06;;;;;;;4.03;0.38;;;;;;;17.85;100.00;100120.94;5024549;28;20525;-56
2023/07/30 00:17:31;;;;;;;1.48;0.30;;;;;;;17.86;100.00;100122.53;5021114;28;20065;-51
2023/07/30 00:19:57;;;;;;;5.57;0.57;;;;;;;17.84;100.00;100125.47;5021185;28;20091;-54
2023/07/30 00:22:22;;;;;;;1.58;0.10;;;;;;;17.90;100.00;100129.03;5018875;28;20494;-50
2023/07/30 00:24:47;;;;;;;2.35;0.60;;;;;;;17.97;100.00;100124.31;5016969;28;20501;-52
2023/07/30 00:27:12;;;;;;;0.65;0.08;;;;;;;17.88;100.00;100120.41;5018592;28;20042;-47
2023/07/30 00:29:38;;;;;;;3.38;0.63;;;;;;;17.84;100.00;100120.13;5021180;28;20877;-57
2023/07/30 00:32:03;;;;;;;4.60;0.50;;;;;;;17.84;100.00;100127.34;5019457;28;20033;-52
2023/07/30 00:34:29;;;;;;;7.93;1.23;;;;;;;17.83;100.00;100118.47;5018316;28;20029;-59
2023/07/30 00:36:54;;;;;;;0.95;0.22;;;;;;;17.87;100.00;100121.50;5022621;28;20071;-55
2023/07/30 00:39:19;;;;;;;2.60;0.47;;;;;;;17.84;100.00;100114.75;5010486;28;20719;-49
2023/07/30 00:41:45;;;;;;;2.00;0.25;;;;;;;17.87;100.00;100108.88;5013729;28;20034;-51
2023/07/30 00:44:11;;;;;;;3.75;0.20;;;;;;;17.89;100.00;100111.34;5013915;28;20026;-55
2023/07/30 00:46:36;;;;;;;3.85;0.43;;;;;;;17.82;100.00;100116.06;5022841;28;20036;-50
2023/07/30 00:49:02;;;;;;;2.30;0.30;;;;;;;17.86;100.00;100114.50;5019222;28;20065;-52
2023/07/30 00:51:31;;;;;;;2.45;0.17;;;;;;;17.84;100.00;100116.63;5019350;28;20030;-52
2023/07/30 00:53:56;;;;;;;1.52;0.10;;;;;;;17.85;100.00;100124.41;5018345;28;20034;-54
2023/07/30 00:56:22;;;;;;;1.92;0.20;;;;;;;17.86;100.00;100119.84;5020013;28;20029;-51
2023/07/30 00:58:48;;;;;;;5.38;0.50;;;;;;;17.80;100.00;100128.91;5020547;28;20151;-52
2023/07/30 01:01:15;;;;;;;2.78;0.25;;;;;;;17.77;100.00;100118.66;5020725;28;20092;-53
2023/07/30 01:03:40;;;;;;;2.42;0.40;;;;;;;17.77;100.00;100119.44;5015417;28;20087;-50
2023/07/30 01:06:05;;;;;;;2.05;0.10;;;;;;;17.80;100.00;100115.50;5013155;28;20679;-54
2023/07/30 01:08:31;;;;;;;2.50;0.35;;;;;;;17.75;100.00;100110.03;5013303;28;20107;-55
2023/07/30 01:10:57;;;;;;;1.55;0.10;;;;;;;17.75;100.00;100115.38;5015948;28;21012;-52
2023/07/30 01:13:23;;;;;;;3.10;0.10;;;;;;;17.72;100.00;100115.88;5011637;28;20113;-49
2023/07/30 01:15:49;;;;;;;1.50;0.30;;;;;;;17.75;100.00;100120.75;5014703;28;20124;-57
2023/07/30 01:18:14;;;;;;;1.80;0.10;;;;;;;17.71;100.00;100127.66;5021786;28;20033;-56
2023/07/30 01:20:40;;;;;;;4.32;0.73;;;;;;;17.74;100.00;100122.63;5020373;28;20542;-48
2023/07/30 01:23:05;;;;;;;3.22;0.35;;;;;;;17.70;100.00;100129.53;5021238;28;20041;-56
2023/07/30 01:25:35;;;;;;;6.38;1.10;;;;;;;17.71;100.00;100124.97;5014123;28;20411;-50
2023/07/30 01:28:02;;;;;;;5.90;0.75;;;;;;;17.73;100.00;100122.84;5022007;28;20036;-53
2023/07/30 01:30:40;;;;;;;5.55;1.25;;;;;;;17.70;100.00;100120.69;5016253;28;20033;-53
2023/07/30 01:33:06;;;;;;;2.85;0.35;;;;;;;17.76;100.00;100117.84;5020354;28;20025;-56
2023/07/30 01:35:32;;;;;;;1.45;0.45;;;;;;;17.79;100.00;100135.31;5014269;28;20037;-54
2023/07/30 01:37:58;;;;;;;0.60;0.10;;;;;;;17.67;100.00;100136.19;5020703;28;20036;-50
2023/07/30 01:40:24;;;;;;;2.83;0.10;;;;;;;17.76;100.00;100127.72;5014597;28;20045;-50
2023/07/30 01:42:50;;;;;;;4.22;0.93;;;;;;;17.75;100.00;100131.47;5019812;28;20044;-58
2023/07/30 01:45:15;;;;;;;6.15;1.10;;;;;;;17.76;100.00;100128.56;5019002;28;20517;-49
2023/07/30 01:47:40;;;;;;;1.33;0.50;;;;;;;17.81;100.00;100135.88;5015049;28;20056;-51
2023/07/30 01:50:06;;;;;;;3.20;0.98;;;;;;;17.75;100.00;100132.28;5018190;28;20045;-52
2023/07/30 01:52:31;;;;;;;2.70;0.45;;;;;;;17.75;100.00;100134.16;5021939;28;20147;-55
2023/07/30 01:54:58;;;;;;;1.83;0.22;;;;;;;17.74;100.00;100124.50;5006315;28;20036;-47
2023/07/30 01:57:24;;;;;;;5.28;0.52;;;;;;;17.67;100.00;100136.19;5014761;28;20479;-50
2023/07/30 01:59:49;;;;;;;2.92;0.32;;;;;;;17.72;100.00;100131.97;5017786;28;20036;-51
2023/07/30 02:02:14;;;;;;;3.13;0.52;;;;;;;17.70;100.00;100123.34;5018001;28;20561;-55
2023/07/30 02:04:40;;;;;;;2.80;0.40;;;;;;;17.69;100.00;100122.56;5019650;28;20542;-51
2023/07/30 02:07:05;;;;;;;4.25;0.90;;;;;;;17.64;100.00;100127.84;5017822;28;20021;-48
2023/07/30 02:09:30;;;;;;;3.22;0.57;;;;;;;17.69;100.00;100135.16;5017153;28;20033;-53
2023/07/30 02:11:56;;;;;;;0.88;0.00;;;;;;;17.57;100.00;100129.88;5016017;28;20124;-55
2023/07/30 02:14:21;;;;;;;2.45;0.35;;;;;;;17.54;100.00;100139.22;5012395;28;20044;-58
2023/07/30 02:16:46;;;;;;;3.47;0.00;;;;;;;17.58;100.00;100131.50;5016796;28;20029;-48
2023/07/30 02:19:12;;;;;;;6.88;1.10;;;;;;;17.61;100.00;100141.75;5017843;28;20128;-50
2023/07/30 02:21:42;;;;;;;4.95;0.32;;;;;;;17.51;100.00;100137.03;5013767;28;20116;-56
2023/07/30 02:24:11;;;;;;;1.30;0.10;;;;;;;17.50;100.00;100139.94;5016208;28;20380;-52
2023/07/30 02:26:37;;;;;;;1.38;0.15;;;;;;;17.53;100.00;100142.13;5020176;28;20098;-52
2023/07/30 02:29:02;;;;;;;2.55;0.10;;;;;;;17.52;100.00;100132.47;5019336;28;20037;-50
2023/07/30 02:31:27;;;;;;;2.92;0.10;;;;;;;17.36;100.00;100134.13;5019851;28;20797;-48
2023/07/30 02:33:53;;;;;;;1.88;0.20;;;;;;;17.31;100.00;100144.75;5015304;28;20034;-55
2023/07/30 02:36:18;;;;;;;2.90;0.30;;;;;;;17.32;100.00;100139.16;5017572;28;21518;-52
2023/07/30 02:38:43;;;;;;;2.10;0.10;;;;;;;17.27;100.00;100143.59;5017478;28;20029;-48
2023/07/30 02:41:09;;;;;;;1.40;0.65;;;;;;;17.21;100.00;100135.47;5013940;28;20053;-49
2023/07/30 02:43:34;;;;;;;0.88;0.15;;;;;;;17.22;100.00;100133.63;5012669;28;20076;-50
2023/07/30 02:45:59;;;;;;;2.30;0.32;;;;;;;17.28;100.00;100142.56;5016771;28;20022;-57
2023/07/30 02:48:25;;;;;;;2.13;0.00;;;;;;;17.06;100.00;100145.94;5013530;28;20135;-53
2023/07/30 02:50:50;;;;;;;2.05;0.35;;;;;;;17.25;100.00;100149.22;5021735;28;20040;-53
2023/07/30 02:53:15;;;;;;;3.75;0.10;;;;;;;17.28;100.00;100140.69;5016959;28;20541;-46
2023/07/30 02:55:40;;;;;;;4.60;0.22;;;;;;;17.18;100.00;100141.34;5014760;28;20041;-54
2023/07/30 02:58:06;;;;;;;2.08;0.30;;;;;;;17.19;100.00;100134.94;5014220;28;20120;-54
2023/07/30 03:00:31;;;;;;;5.25;0.15;;;;;;;17.25;100.00;100132.34;5012583;28;20040;-53
2023/07/30 03:02:57;;;;;;;8.40;0.65;;;;;;;17.19;100.00;100139.47;5015352;28;20105;-48
2023/07/30 03:05:22;;;;;;;2.58;0.38;;;;;;;17.20;100.00;100131.19;5010960;28;20084;-54
2023/07/30 03:07:47;;;;;;;5.10;1.00;;;;;;;17.13;100.00;100127.84;5018509;28;20041;-58
2023/07/30 03:10:12;;;;;;;2.17;0.20;;;;;;;17.03;100.00;100130.38;5011810;28;20072;-53
2023/07/30 03:12:38;;;;;;;6.85;0.88;;;;;;;16.98;100.00;100122.25;5015717;28;20053;-48
2023/07/30 03:15:03;;;;;;;3.50;0.63;;;;;;;16.82;100.00;100133.75;5019699;28;20610;-47
2023/07/30 03:17:29;;;;;;;4.80;0.90;;;;;;;16.78;100.00;100122.72;5013568;28;20038;-50
2023/07/30 03:19:54;;;;;;;5.63;1.02;;;;;;;16.70;100.00;100134.59;5013315;28;20072;-49
2023/07/30 03:22:19;;;;;;;3.33;0.15;;;;;;;16.62;100.00;100139.50;5011384;28;20057;-56
2023/07/30 03:24:49;;;;;;;3.97;0.65;;;;;;;16.61;100.00;100136.00;5011026;28;20034;-57
2023/07/30 03:27:14;;;;;;;5.60;0.55;;;;;;;16.56;100.00;100136.72;5018718;28;20108;-57
2023/07/30 03:29:40;;;;;;;14.63;1.30;;;;;;;16.61;100.00;100133.34;5014909;28;20116;-56
2023/07/30 03:32:05;;;;;;;5.18;0.57;;;;;;;16.50;100.00;100144.91;5014376;28;20021;-59
2023/07/30 03:34:31;;;;;;;5.20;0.30;;;;;;;16.50;100.00;100147.59;5016622;28;20164;-53
2023/07/30 03:36:56;;;;;;;2.05;0.25;;;;;;;16.48;100.00;100145.13;5015833;28;20060;-51
2023/07/30 03:39:22;;;;;;;4.43;0.90;;;;;;;16.41;100.00;100149.00;5015396;28;20100;-53
2023/07/30 03:41:47;;;;;;;7.38;0.98;;;;;;;16.45;100.00;100150.97;5018316;28;20501;-58
2023/07/30 03:44:12;;;;;;;1.83;0.35;;;;;;;16.41;100.00;100154.34;5023591;28;20104;-55
2023/07/30 03:46:38;;;;;;;3.33;0.50;;;;;;;16.45;100.00;100160.88;5021394;28;20036;-53
2023/07/30 03:49:03;;;;;;;3.83;0.75;;;;;;;16.47;100.00;100153.38;5017722;28;20046;-59
2023/07/30 03:51:28;;;;;;;8.98;1.10;;;;;;;16.48;100.00;100160.38;5021124;28;20052;-48
2023/07/30 03:53:53;;;;;;;0.63;0.10;;;;;;;16.44;100.00;100157.34;5014880;28;20454;-51
2023/07/30 03:56:19;;;;;;;1.75;0.32;;;;;;;16.40;100.00;100158.09;5017401;28;20479;-53
2023/07/30 03:58:44;;;;;;;4.70;1.08;;;;;;;16.32;100.00;100152.06;5020843;28;20079;-58
2023/07/30 04:01:09;;;;;;;3.55;0.03;;;;;;;16.25;100.00;100154.03;5021592;28;20054;-55
2023/07/30 04:03:35;;;;;;;2.60;0.30;;;;;;;16.20;100.00;100151.25;5014991;28;20132;-54
2023/07/30 04:06:00;;;;;;;5.72;0.13;;;;;;;16.13;100.00;100153.25;5023054;28;20078;-55
2023/07/30 04:08:26;;;;;;;2.15;0.45;;;;;;;16.15;100.00;100161.84;5017627;28;20128;-50
2023/07/30 04:10:51;;;;;;;3.85;0.50;;;;;;;16.17;100.00;100158.97;5017138;28;20033;-54
2023/07/30 04:13:16;;;;;;;2.45;0.65;;;;;;;16.06;100.00;100152.59;5010302;28;20037;-56
2023/07/30 04:15:42;;;;;;;6.82;0.30;;;;;;;16.02;100.00;100159.44;5023383;28;20091;-47
2023/07/30 04:18:07;;;;;;;3.58;0.40;;;;;;;16.03;100.00;100164.56;5016362;28;20131;-55
2023/07/30 04:20:32;;;;;;;5.28;0.25;;;;;;;15.98;100.00;100167.13;5017409;28;20041;-60
2023/07/30 04:22:58;;;;;;;2.63;0.32;;;;;;;16.05;100.00;100173.13;5023216;28;20045;-52
2023/07/30 04:25:23;;;;;;;5.00;2.05;;;;;;;16.09;100.00;100162.81;5023808;28;20052;-48
2023/07/30 04:27:48;;;;;;;1.55;0.20;;;;;;;16.02;100.00;100178.97;5017555;28;20037;-48
2023/07/30 04:30:14;;;;;;;2.70;0.68;;;;;;;16.09;100.00;100181.53;5015642;28;20029;-55
2023/07/30 04:32:39;;;;;;;1.50;0.20;;;;;;;16.06;100.00;100184.66;5014917;28;20064;-49
2023/07/30 04:35:05;;;;;;;5.03;1.20;;;;;;;16.09;100.00;100185.00;5018691;28;20258;-52
2023/07/30 04:37:30;;;;;;;3.28;0.10;;;;;;;16.21;100.00;100186.84;5020948;28;20383;-52
2023/07/30 04:39:56;;;;;;;2.10;0.20;;;;;;;16.32;100.00;100188.69;5019709;28;20028;-53
2023/07/30 04:42:21;;;;;;;5.75;0.73;;;;;;;16.38;100.00;100187.75;5020032;28;20774;-52
2023/07/30 04:44:47;;;;;;;7.28;1.75;;;;;;;16.49;100.00;100189.56;5019595;28;20125;-54
2023/07/30 04:47:12;;;;;;;2.83;0.22;;;;;;;16.56;100.00;100184.91;5020411;28;20028;-49
2023/07/30 04:49:40;;;;;;;3.72;0.03;;;;;;;16.66;100.00;100189.66;5020694;28;20033;-53
2023/07/30 04:52:06;;;;;;;3.88;0.30;;;;;;;16.71;100.00;100191.63;5017462;28;20113;-49
2023/07/30 04:54:32;;;;;;;3.35;0.88;;;;;;;16.71;100.00;100191.63;5021691;28;20454;-51
2023/07/30 04:56:57;;;;;;;4.65;0.55;;;;;;;16.69;100.00;100205.22;5018357;28;20129;-55
2023/07/30 04:59:23;;;;;;;3.85;0.68;;;;;;;16.78;100.00;100211.06;5020572;28;20040;-49
2023/07/30 05:01:48;;;;;;;1.50;0.20;;;;;;;16.83;100.00;100207.66;5017799;28;20045;-55
2023/07/30 05:04:13;;;;;;;3.45;0.25;;;;;;;16.81;100.00;100202.56;5020344;28;20060;-59
2023/07/30 05:06:39;;;;;;;3.40;0.90;;;;;;;16.71;100.00;100210.34;5020531;28;20088;-53
2023/07/30 05:09:05;;;;;;;4.45;0.35;;;;;;;16.69;100.00;100209.78;5017301;28;20131;-53
2023/07/30 05:11:30;;;;;;;7.03;0.57;;;;;;;16.65;100.00;100220.16;5014539;28;20033;-49
2023/07/30 05:13:55;;;;;;;5.30;1.88;;;;;;;16.62;100.00;100209.91;5020761;28;20030;-48
2023/07/30 05:16:21;;;;;;;3.92;0.50;;;;;;;16.69;100.00;100210.56;5019619;28;20175;-55
2023/07/30 05:18:46;;;;;;;2.88;0.85;;;;;;;16.68;100.00;100214.31;5022531;28;20116;-50
2023/07/30 05:21:12;;;;;;;1.75;0.93;;;;;;;16.69;100.00;100209.78;5016578;28;20570;-50
2023/07/30 05:23:37;;;;;;;8.90;0.77;;;;;;;16.77;100.00;100210.22;5017042;28;20040;-53
2023/07/30 05:26:03;;;;;;;6.53;0.47;;;;;;;16.85;100.00;100208.22;5014142;28;20029;-52
2023/07/30 05:28:28;;;;;;;4.60;0.30;;;;;;;16.90;100.00;100211.00;5020157;28;20029;-51
2023/07/30 05:30:53;;;;;;;3.25;0.57;;;;;;;16.93;100.00;100213.19;5014350;28;20026;-50
2023/07/30 05:33:19;;;;;;;2.17;0.20;;;;;;;17.02;100.00;100219.81;5023542;28;20531;-49
2023/07/30 05:35:45;;;;;;;8.40;1.55;;;;;;;17.05;100.00;100229.22;5027560;28;20044;-54
2023/07/30 05:38:10;;;;;;;3.45;0.55;;;;;;;16.99;100.00;100223.78;5022068;28;20037;-51
2023/07/30 05:40:36;;;;;;;2.85;1.30;;;;;;;16.94;100.00;100215.66;5019836;28;20100;-54
2023/07/30 05:43:02;;;;;;;3.88;0.73;;;;;;;16.99;100.00;100228.34;5019515;28;20029;-47
2023/07/30 05:45:28;;;;;;;1.33;0.38;;;;;;;16.98;100.00;100224.00;5020869;28;20059;-51
2023/07/30 05:47:53;;;;;;;7.35;0.55;;;;;;;17.05;100.00;100231.91;5018814;28;20048;-48
2023/07/30 05:50:19;;;;;;;4.53;1.00;;;;;;;17.23;100.00;100216.44;5021393;28;20033;-51
2023/07/30 05:52:44;;;;;;;5.55;0.15;;;;;;;17.33;100.00;100231.88;5016960;28;20509;-53
2023/07/30 05:55:09;;;;;;;5.93;0.55;;;;;;;17.43;100.00;100225.88;5021640;28;20069;-48
2023/07/30 05:57:35;;;;;;;4.25;0.80;;;;;;;17.41;100.00;100228.00;5015263;28;20026;-55
2023/07/30 06:00:00;;;;;;;3.63;0.28;;;;;;;17.46;100.00;100233.44;5019263;28;20029;-58
2023/07/30 06:02:25;;;;;;;5.38;0.57;;;;;;;17.49;100.00;100221.44;5021256;28;20426;-54
2023/07/30 06:04:51;;;;;;;2.90;0.20;;;;;;;17.51;100.00;100225.50;5017867;28;20025;-50
2023/07/30 06:07:16;;;;;;;6.57;0.38;;;;;;;17.48;100.00;100234.03;5016156;28;20025;-50
2023/07/30 06:09:41;;;;;;;5.55;0.45;;;;;;;17.46;100.00;100240.69;5019644;28;20068;-50
2023/07/30 06:12:07;;;;;;;5.80;0.70;;;;;;;17.35;100.00;100239.69;5023234;28;20106;-49
2023/07/30 06:14:32;;;;;;;3.60;0.13;;;;;;;17.45;100.00;100234.50;5019442;28;20457;-51
2023/07/30 06:16:58;;;;;;;5.75;0.77;;;;;;;17.48;100.00;100254.63;5021905;28;20034;-54
2023/07/30 06:19:23;;;;;;;5.85;0.70;;;;;;;17.64;100.00;100246.59;5014267;28;20588;-53
2023/07/30 06:21:48;;;;;;;3.47;0.20;;;;;;;17.69;100.00;100240.53;5021009;28;20560;-54
2023/07/30 06:24:14;;;;;;;3.67;0.73;;;;;;;17.63;100.00;100234.28;5019068;28;20061;-60
2023/07/30 06:26:39;;;;;;;2.97;0.47;;;;;;;17.48;100.00;100254.63;5020778;28;20487;-59
2023/07/30 06:29:04;;;;;;;3.45;1.17;;;;;;;17.55;100.00;100248.06;5018486;28;20049;-53
2023/07/30 06:31:30;;;;;;;8.63;0.70;;;;;;;17.81;100.00;100249.34;5017062;28;20088;-53
2023/07/30 06:33:55;;;;;;;4.07;0.73;;;;;;;17.93;100.00;100249.22;5017119;28;20055;-53
2023/07/30 06:36:20;;;;;;;4.22;0.90;;;;;;;18.01;100.00;100232.72;5021415;28;20032;-58
2023/07/30 06:38:46;;;;;;;2.60;0.30;;;;;;;18.11;100.00;100241.97;5018902;28;20456;-54
2023/07/30 06:41:11;;;;;;;4.18;0.93;;;;;;;18.04;100.00;100242.16;5019086;28;20486;-60
2023/07/30 06:43:36;;;;;;;5.88;0.20;;;;;;;17.99;100.00;100237.53;5017224;28;20029;-53
2023/07/30 06:46:02;;;;;;;1.17;0.20;;;;;;;17.96;100.00;100240.69;5020292;28;20036;-52
2023/07/30 06:48:27;;;;;;;3.55;0.30;;;;;;;18.02;100.00;100238.91;5008355;28;20061;-60
2023/07/30 06:50:53;;;;;;;3.00;0.63;;;;;;;18.00;100.00;100241.03;5017120;28;20479;-52
2023/07/30 06:53:18;;;;;;;4.70;1.15;;;;;;;18.08;100.00;100244.09;5016436;28;20040;-59
2023/07/30 06:55:44;;;;;;;9.10;1.17;;;;;;;18.09;100.00;100236.84;5015713;28;20034;-56
2023/07/30 06:58:10;;;;;;;8.93;1.55;;;;;;;18.16;100.00;100242.88;5012218;28;20036;-49
2023/07/30 07:00:35;;;;;;;5.00;0.82;;;;;;;18.25;100.00;100248.59;5011555;28;20065;-51
2023/07/30 07:03:00;;;;;;;5.70;0.90;;;;;;;18.45;100.00;100238.16;5009095;28;20057;-50
2023/07/30 07:05:26;;;;;;;6.97;0.17;;;;;;;18.71;100.00;100233.09;5015333;28;20034;-51
2023/07/30 07:07:51;;;;;;;3.13;0.73;;;;;;;19.00;100.00;100244.47;5017206;28;20457;-54
2023/07/30 07:10:16;;;;;;;7.10;0.50;;;;;;;18.84;100.00;100229.25;5025648;28;20052;-51
2023/07/30 07:12:42;;;;;;;3.78;1.08;;;;;;;18.84;100.00;100240.00;5018807;28;20470;-48
2023/07/30 07:15:08;;;;;;;11.63;1.80;;;;;;;18.96;100.00;100243.34;5025272;28;20025;-51
2023/07/30 07:17:33;;;;;;;2.45;0.35;;;;;;;19.06;100.00;100237.28;5024368;28;20049;-54
2023/07/30 07:19:59;;;;;;;6.60;1.15;;;;;;;19.21;100.00;100242.81;5020734;28;20535;-54
2023/07/30 07:22:24;;;;;;;4.15;0.85;;;;;;;19.15;100.00;100241.97;5018166;28;20022;-51
2023/07/30 07:24:52;;;;;;;5.10;0.50;;;;;;;19.18;100.00;100252.19;5022771;28;20215;-53
2023/07/30 07:27:21;;;;;;;6.68;1.35;;;;;;;19.27;100.00;100241.78;5022951;28;20040;-48
2023/07/30 07:29:46;;;;;;;7.18;0.88;;;;;;;19.56;100.00;100253.06;5022228;28;20126;-50
2023/07/30 07:32:11;;;;;;;4.85;0.30;;;;;;;19.62;100.00;100251.25;5021715;28;20483;-58
2023/07/30 07:34:37;;;;;;;11.75;1.05;;;;;;;19.74;100.00;100246.50;5017915;28;20030;-53
2023/07/30 07:37:02;;;;;;;7.85;1.27;;;;;;;20.00;100.00;100242.13;5019070;28;20036;-55
2023/07/30 07:39:28;;;;;;;3.35;0.60;;;;;;;19.83;100.00;100261.13;5020401;28;20406;-51
2023/07/30 07:41:54;;;;;;;3.15;0.50;;;;;;;19.75;100.00;100258.91;5018131;28;20129;-55
2023/07/30 07:44:19;;;;;;;4.28;0.43;;;;;;;20.04;100.00;100275.53;5018830;28;20026;-49
2023/07/30 07:46:44;;;;;;;4.63;0.40;;;;;;;20.35;100.00;100259.56;5019801;28;20044;-47
2023/07/30 07:49:10;;;;;;;3.78;0.77;;;;;;;20.54;100.00;100259.97;5018921;28;20112;-52
2023/07/30 07:51:35;;;;;;;4.70;0.63;;;;;;;20.31;100.00;100258.47;5018410;28;20034;-50
2023/07/30 07:54:00;;;;;;;6.10;0.90;;;;;;;19.96;100.00;100270.63;5022479;28;20040;-54
2023/07/30 07:56:26;;;;;;;6.55;1.50;;;;;;;20.00;100.00;100269.03;5021914;28;20029;-54
2023/07/30 07:58:51;;;;;;;3.92;1.38;;;;;;;20.05;100.00;100270.97;5019681;28;20037;-50
2023/07/30 08:01:16;;;;;;;8.20;1.25;;;;;;;20.48;100.00;100259.09;5019181;28;20060;-56
2023/07/30 08:03:42;;;;;;;5.07;1.27;;;;;;;20.62;100.00;100256.75;5022755;28;20030;-50
2023/07/30 08:06:07;;;;;;;2.70;0.50;;;;;;;20.74;100.00;100261.94;5021926;28;20452;-51
2023/07/30 08:08:32;;;;;;;5.47;0.50;;;;;;;20.97;100.00;100263.38;5022621;28;20029;-52
2023/07/30 08:10:58;;;;;;;7.00;1.00;;;;;;;21.00;100.00;100270.91;5016216;28;20032;-57
2023/07/30 08:13:23;;;;;;;2.17;0.40;;;;;;;21.19;100.00;100273.13;5020474;28;20069;-51
2023/07/30 08:15:48;;;;;;;2.15;0.32;;;;;;;21.31;100.00;100270.97;5019763;28;20394;-48
2023/07/30 08:18:14;;;;;;;3.55;0.98;;;;;;;21.51;100.00;100271.03;5020620;28;20060;-54
2023/07/30 08:20:39;;;;;;;0.98;0.10;;;;;;;21.84;100.00;100279.69;5014632;28;20608;-60
2023/07/30 08:23:04;;;;;;;4.50;0.82;;;;;;;22.00;100.00;100275.88;5021951;28;20026;-54
2023/07/30 08:25:30;;;;;;;5.35;1.40;;;;;;;21.85;100.00;100275.91;5024513;28;20099;-51
2023/07/30 08:27:55;;;;;;;3.85;0.75;;;;;;;21.80;100.00;100277.78;5011063;28;20479;-55
2023/07/30 08:30:20;;;;;;;1.13;0.30;;;;;;;21.73;100.00;100278.06;5024251;28;20033;-60
2023/07/30 08:32:46;;;;;;;3.60;0.35;;;;;;;22.18;100.00;100279.91;5019384;28;20828;-54
2023/07/30 08:35:11;;;;;;;3.83;0.47;;;;;;;22.01;100.00;100274.00;5023706;28;20493;-50
2023/07/30 08:37:37;;;;;;;2.00;0.38;;;;;;;22.20;100.00;100279.66;5021226;28;20041;-48
2023/07/30 08:40:03;;;;;;;4.53;0.77;;;;;;;22.17;100.00;100277.47;5019264;28;20034;-46
2023/07/30 08:42:28;;;;;;;5.22;0.70;;;;;;;22.03;100.00;100276.44;5017159;28;20041;-51
2023/07/30 08:44:54;;;;;;;3.40;0.35;;;;;;;22.24;100.00;100285.34;5020537;28;20045;-45
2023/07/30 08:47:19;;;;;;;2.05;0.50;;;;;;;21.74;100.00;100287.78;5021223;28;20402;-56
2023/07/30 08:49:44;;;;;;;4.07;0.10;;;;;;;21.66;100.00;100291.00;5017626;28;20045;-50
2023/07/30 08:52:10;;;;;;;4.55;0.50;;;;;;;21.90;100.00;100289.38;5021860;28;20017;-53
2023/07/30 08:54:37;;;;;;;2.40;0.55;;;;;;;22.25;100.00;100279.63;5024312;28;20106;-47
2023/07/30 08:57:03;;;;;;;8.23;0.68;;;;;;;22.48;100.00;100275.53;5020813;28;20037;-51
2023/07/30 08:59:38;;;;;;;4.50;0.70;;;;;;;22.82;100.00;100277.56;5017635;28;20508;-54
2023/07/30 09:02:07;;;;;;;3.70;0.25;;;;;;;23.04;100.00;100269.91;5020681;28;20060;-54
2023/07/30 09:04:36;;;;;;;3.50;0.43;;;;;;;23.32;100.00;100286.53;5022620;28;20087;-50
2023/07/30 09:07:02;;;;;;;1.90;0.20;;;;;;;22.86;100.00;100274.03;5015167;28;20104;-63
2023/07/30 09:09:27;;;;;;;5.18;1.00;;;;;;;22.96;100.00;100277.78;5022801;28;20510;-51
2023/07/30 09:11:55;;;;;;;2.67;0.80;;;;;;;23.10;100.00;100270.69;5020406;28;20051;-52
2023/07/30 09:14:21;;;;;;;1.85;0.73;;;;;;;23.14;100.00;100273.66;5019906;28;20026;-54
2023/07/30 09:16:47;;;;;;;1.15;0.20;;;;;;;22.74;100.00;100278.13;5021553;28;20032;-50
2023/07/30 09:19:17;;;;;;;6.80;0.20;;;;;;;22.69;100.00;100275.47;5021533;28;20033;-47
2023/07/30 09:21:43;;;;;;;2.22;0.10;;;;;;;23.06;100.00;100272.34;5016764;28;20045;-51
2023/07/30 09:24:08;;;;;;;5.50;0.80;;;;;;;23.52;100.00;100296.41;5023422;28;20173;-46
2023/07/30 09:26:43;;;;;;;6.22;1.05;;;;;;;23.61;98.30;100294.69;5012203;28;20034;-45
2023/07/30 09:29:09;;;;;;;2.83;0.32;;;;;;;23.36;98.23;100284.06;5019897;28;21593;-50
2023/07/30 09:31:55;;;;;;;5.43;0.98;;;;;;;23.65;95.79;100274.13;5015146;28;20052;-51
2023/07/30 09:34:22;;;;;;;4.38;0.38;;;;;;;23.48;95.41;100287.22;5016155;28;20415;-51
2023/07/30 09:36:52;;;;;;;2.42;0.00;;;;;;;23.24;93.66;100296.03;5022783;28;20059;-53
2023/07/30 09:39:20;;;;;;;2.33;0.30;;;;;;;23.03;95.93;100289.94;5021397;28;20041;-47
2023/07/30 09:41:46;;;;;;;1.70;0.30;;;;;;;23.09;98.07;100285.31;5020952;28;20494;-53
2023/07/30 09:44:12;;;;;;;5.28;0.60;;;;;;;23.35;98.21;100279.75;5011639;28;20040;-48
2023/07/30 09:46:45;;;;;;;1.90;0.30;;;;;;;22.94;97.86;100272.63;5014952;28;20033;-48
2023/07/30 09:49:11;;;;;;;0.70;0.43;;;;;;;23.01;99.24;100273.19;5022405;28;20061;-47
2023/07/30 09:51:40;;;;;;;2.70;1.02;;;;;;;22.78;100.00;100271.09;5019648;28;20525;-52
2023/07/30 09:54:11;;;;;;;2.42;0.22;;;;;;;22.84;100.00;100267.28;5021106;28;20025;-57
2023/07/30 09:56:37;;;;;;;2.47;0.63;;;;;;;22.98;100.00;100281.06;5017974;28;20041;-53
2023/07/30 09:59:07;;;;;;;3.33;0.38;;;;;;;22.81;100.00;100284.88;5015774;28;20041;-49
2023/07/30 10:01:42;;;;;;;2.80;0.25;;;;;;;22.74;100.00;100286.25;5018951;28;20511;-56
2023/07/30 10:04:09;;;;;;;1.10;0.10;;;;;;;22.60;100.00;100303.06;5015400;28;20033;-49
2023/07/30 10:06:42;;;;;;;8.45;1.55;;;;;;;22.25;100.00;100295.03;5022225;28;20037;-51
2023/07/30 10:09:10;;;;;;;2.80;0.57;;;;;;;22.46;100.00;100295.78;5014101;28;20037;-57
2023/07/30 10:11:37;;;;;;;2.30;0.45;;;;;;;22.62;100.00;100297.38;5021106;28;20025;-47
2023/07/30 10:14:03;;;;;;;0.40;0.15;;;;;;;22.77;100.00;100282.97;5017263;28;20475;-50
2023/07/30 10:16:29;;;;;;;6.07;0.50;;;;;;;22.88;100.00;100297.28;5017136;28;20116;-50
2023/07/30 10:18:57;;;;;;;2.65;0.63;;;;;;;22.85;100.00;100285.94;5012396;28;20034;-50
2023/07/30 10:21:24;;;;;;;5.80;0.70;;;;;;;22.52;100.00;100289.31;5016895;28;20041;-58
2023/07/30 10:23:57;;;;;;;3.50;0.30;;;;;;;22.75;100.00;100279.78;5028354;28;20036;-58
2023/07/30 10:26:28;;;;;;;1.80;0.50;;;;;;;23.11;100.00;100283.13;5016497;28;20087;-56
2023/07/30 10:29:13;;;;;;;2.97;0.30;;;;;;;23.28;100.00;100286.28;5016704;28;20033;-60
2023/07/30 10:31:40;;;;;;;4.03;0.35;;;;;;;23.37;100.00;100291.91;5017217;28;20045;-57
2023/07/30 10:34:10;;;;;;;1.55;0.50;;;;;;;23.04;100.00;100288.03;5017768;28;20513;-62
2023/07/30 10:36:50;;;;;;;5.82;1.25;;;;;;;22.78;100.00;100290.84;5009467;28;20041;-55
2023/07/30 10:39:20;;;;;;;2.28;0.20;;;;;;;22.68;100.00;100288.16;5013123;28;20494;-62
2023/07/30 10:41:49;;;;;;;1.65;0.63;;;;;;;22.46;100.00;100296.63;5021707;28;20565;-57
2023/07/30 10:44:23;;;;;;;4.45;1.08;;;;;;;22.33;100.00;100297.19;5020790;28;20577;-47
2023/07/30 10:46:48;;;;;;;3.55;0.50;;;;;;;22.39;100.00;100305.00;5016585;28;20467;-57
2023/07/30 10:49:14;;;;;;;8.30;0.82;;;;;;;22.36;100.00;100307.47;5025598;28;20112;-47
2023/07/30 10:51:40;;;;;;;5.15;1.90;;;;;;;21.98;100.00;100302.34;5025642;28;20040;-53
2023/07/30 10:54:08;;;;;;;2.78;0.38;;;;;;;22.02;100.00;100304.50;5024472;28;20120;-48
2023/07/30 10:56:37;;;;;;;4.68;0.50;;;;;;;22.08;100.00;100306.13;5026198;28;20052;-60
2023/07/30 10:59:07;;;;;;;2.17;0.43;;;;;;;22.04;100.00;100305.03;5017843;28;20037;-56
2023/07/30 11:01:43;;;;;;;4.18;1.38;;;;;;;21.99;100.00;100309.38;5024019;28;20180;-57
2023/07/30 11:04:19;;;;;;;4.40;0.65;;;;;;;21.99;100.00;100313.94;5020755;28;20407;-53
2023/07/30 11:06:47;;;;;;;5.13;0.40;;;;;;;22.02;100.00;100317.97;5025000;28;20029;-61
2023/07/30 11:09:20;;;;;;;3.17;0.38;;;;;;;22.09;100.00;100305.84;5017591;28;20041;-49
2023/07/30 11:11:46;;;;;;;1.63;0.75;;;;;;;21.90;100.00;100319.09;5021498;28;20029;-63